»·PEaware :: RNGR803 KNGP-KNGP

RNGR803 :: KNGP-KNGP

FLIGHT INFORMATION

Flight Status: Arrived
Operator: Unknown
More flights by this operator :: More flights under this callsign
Pilot: USN Avenger (31125)
Aircraft: BEECH AIRCRAFT T-6A TEXAN
(TEX2)
More flights by this aircraft type
Origin: KNGP Corpus Christi NAS/Truax
United States
Destination: KNGP Corpus Christi NAS/Truax
United States
More flights between these airports :: More routes between these airports
Route:
File this flight plan on PilotEdge
Remarks:
Altitude:
(Current/Filed)
5,500ft
Speed:
(Current/Filed)
240kts
Departed: 15-Nov-23 01:11 PM
Arrived: 15-Nov-23 02:01 PM
Distance/Time
Traveled:
1nm/0:50
Distance/Time
To Go:
Arrived

Flight Plot

Page will automatically refresh every two minutes.

Flight plan parsing failed; only flown route is shown


Map Options




Map Legend


Flown Route
Filed Route
Departure Airport
Arrival Airport
Navaid (VOR, NDB)
Fix

Horizontal Profiles

Position Reports

Time Latitude Longitude Heading Altitude Ground
Speed
15-Nov-23 13:02 27.698524 -97.284277 159 22ft 0kts
15-Nov-23 13:03 27.698523 -97.284276 159 22ft 0kts
15-Nov-23 13:04 27.698521 -97.284275 159 22ft 0kts
15-Nov-23 13:05 27.698519 -97.284274 159 22ft 0kts
15-Nov-23 13:06 27.698518 -97.284274 159 22ft 0kts
15-Nov-23 13:07 27.698242 -97.285470 341 22ft 11kts
15-Nov-23 13:08 27.697947 -97.288183 224 22ft 21kts
15-Nov-23 13:09 27.695624 -97.291053 228 22ft 0kts
15-Nov-23 13:10 27.694421 -97.290834 134 22ft 26kts
15-Nov-23 13:11 27.670636 -97.257755 114 614ft 195kts
15-Nov-23 13:12 27.685082 -97.215703 14 2355ft 178kts
15-Nov-23 13:13 27.735642 -97.219678 350 4814ft 191kts
15-Nov-23 13:14 27.796175 -97.229587 349 5608ft 251kts
15-Nov-23 13:15 27.864970 -97.231682 4 6980ft 225kts
15-Nov-23 13:16 27.924572 -97.225188 14 9496ft 208kts
15-Nov-23 13:16 27.972289 -97.220865 1 11279ft 215kts
15-Nov-23 13:18 28.041597 -97.227746 350 13510ft 223kts
15-Nov-23 13:19 28.095666 -97.261894 307 14542ft 254kts
15-Nov-23 13:20 28.137857 -97.332376 298 14585ft 282kts
15-Nov-23 13:21 28.169176 -97.414892 291 14637ft 285kts
15-Nov-23 13:21 28.196039 -97.483953 294 14646ft 289kts
15-Nov-23 13:22 28.232318 -97.566118 300 14649ft 288kts
15-Nov-23 13:24 28.281663 -97.657744 301 14698ft 286kts
15-Nov-23 13:24 28.318147 -97.721559 303 14259ft 282kts
15-Nov-23 13:26 28.329017 -97.776217 262 12761ft 269kts
15-Nov-23 13:27 28.321516 -97.775007 80 11326ft 268kts
15-Nov-23 13:27 28.376559 -97.749062 0 9396ft 259kts
15-Nov-23 13:28 28.446510 -97.745561 5 6637ft 241kts
15-Nov-23 13:29 28.499939 -97.728048 343 2348ft 196kts
15-Nov-23 13:30 28.554196 -97.739067 9 1563ft 237kts
15-Nov-23 13:31 28.610090 -97.701781 50 1320ft 234kts
15-Nov-23 13:33 28.625485 -97.626716 104 1353ft 198kts
15-Nov-23 13:33 28.620693 -97.579967 30 1326ft 149kts
15-Nov-23 13:34 28.636406 -97.608955 291 1173ft 123kts
15-Nov-23 13:35 28.622052 -97.620082 128 451ft 111kts
15-Nov-23 13:36 28.612813 -97.587610 72 750ft 124kts
15-Nov-23 13:37 28.632298 -97.606343 292 1185ft 118kts
15-Nov-23 13:38 28.626607 -97.625586 144 627ft 119kts
15-Nov-23 13:40 28.610619 -97.587274 111 991ft 156kts
15-Nov-23 13:40 28.584075 -97.553424 146 1781ft 183kts
15-Nov-23 13:41 28.536663 -97.522058 147 2734ft 219kts
15-Nov-23 13:42 28.480056 -97.478843 141 2490ft 256kts
15-Nov-23 13:43 28.422674 -97.435075 149 2453ft 239kts
15-Nov-23 13:44 28.365485 -97.397992 149 2541ft 239kts
15-Nov-23 13:45 28.307500 -97.360271 150 2555ft 246kts
15-Nov-23 13:46 28.247835 -97.320880 146 2643ft 246kts
15-Nov-23 13:47 28.191337 -97.276904 146 2500ft 240kts
15-Nov-23 13:48 28.137123 -97.233517 146 2464ft 238kts
15-Nov-23 13:49 28.076944 -97.198685 153 2564ft 248kts
15-Nov-23 13:50 28.015368 -97.164851 154 2374ft 247kts
15-Nov-23 13:51 27.953335 -97.132432 155 2619ft 248kts
15-Nov-23 13:52 27.887764 -97.125531 203 2373ft 242kts
15-Nov-23 13:53 27.827687 -97.162496 201 2620ft 247kts
15-Nov-23 13:54 27.766062 -97.167413 191 963ft 205kts
15-Nov-23 13:55 27.740682 -97.217745 257 1079ft 198kts
15-Nov-23 13:56 27.729086 -97.280779 258 1053ft 207kts
15-Nov-23 13:57 27.694439 -97.288286 132 991ft 204kts
15-Nov-23 13:58 27.700870 -97.267622 314 794ft 125kts
15-Nov-23 13:59 27.704537 -97.294054 191 334ft 110kts
15-Nov-23 14:00 27.688323 -97.283793 133 22ft 12kts
15-Nov-23 14:01 27.686809 -97.281871 131 22ft 5kts
15-Nov-23 14:02 27.686370 -97.281331 134 22ft 0kts
15-Nov-23 14:03 27.686369 -97.281329 134 22ft 0kts
15-Nov-23 14:04 27.686367 -97.281328 134 22ft 0kts
15-Nov-23 14:05 27.686366 -97.281326 134 22ft 0kts
15-Nov-23 14:06 27.686365 -97.281325 134 22ft 0kts
15-Nov-23 14:07 27.686363 -97.281323 134 22ft 0kts
15-Nov-23 14:08 27.686362 -97.281322 134 22ft 0kts
15-Nov-23 14:09 27.686361 -97.281320 134 22ft 0kts
15-Nov-23 14:10 27.686360 -97.281319 134 22ft 0kts
15-Nov-23 14:11 27.686358 -97.281318 134 22ft 0kts
15-Nov-23 14:12 27.686357 -97.281316 134 22ft 0kts
15-Nov-23 14:13 27.686356 -97.281315 134 22ft 0kts
15-Nov-23 14:14 27.686355 -97.281313 134 22ft 0kts

Navigation Log

Ident Type
Flight plan parsing failed, navigation log unavailable